sensor_id;sensor_type;location;lat;lon;timestamp;pressure;altitude;pressure_sealevel;temperature;humidity
62510;BME280;48558;48.242;11.654;2023-05-16T00:01:36;95845.53;;;11.11;100.00
62510;BME280;48558;48.242;11.654;2023-05-16T00:05:49;95828.84;;;10.91;100.00
62510;BME280;48558;48.242;11.654;2023-05-16T00:10:01;95832.84;;;11.04;100.00
62510;BME280;48558;48.242;11.654;2023-05-16T00:14:14;95833.16;;;10.92;100.00
62510;BME280;48558;48.242;11.654;2023-05-16T00:18:27;95833.91;;;10.92;100.00
62510;BME280;48558;48.242;11.654;2023-05-16T00:22:40;95837.72;;;10.80;100.00
62510;BME280;48558;48.242;11.654;2023-05-16T00:27:03;95823.97;;;10.86;100.00
62510;BME280;48558;48.242;11.654;2023-05-16T00:31:15;95817.50;;;10.74;100.00
62510;BME280;48558;48.242;11.654;2023-05-16T00:35:28;95821.69;;;10.84;100.00
62510;BME280;48558;48.242;11.654;2023-05-16T00:39:41;95824.91;;;10.68;100.00
62510;BME280;48558;48.242;11.654;2023-05-16T00:43:53;95825.13;;;10.64;100.00
62510;BME280;48558;48.242;11.654;2023-05-16T00:48:06;95816.34;;;10.66;100.00
62510;BME280;48558;48.242;11.654;2023-05-16T00:52:20;95830.28;;;10.71;100.00
62510;BME280;48558;48.242;11.654;2023-05-16T00:56:33;95819.75;;;10.61;100.00
62510;BME280;48558;48.242;11.654;2023-05-16T01:00:46;95829.09;;;10.63;100.00
62510;BME280;48558;48.242;11.654;2023-05-16T01:04:59;95832.91;;;10.66;100.00
62510;BME280;48558;48.242;11.654;2023-05-16T01:09:12;95822.53;;;10.61;100.00
62510;BME280;48558;48.242;11.654;2023-05-16T01:18:36;95826.63;;;10.65;100.00
62510;BME280;48558;48.242;11.654;2023-05-16T01:23:04;95823.88;;;10.65;100.00
62510;BME280;48558;48.242;11.654;2023-05-16T01:27:26;95810.41;;;10.44;100.00
62510;BME280;48558;48.242;11.654;2023-05-16T01:31:39;95811.38;;;10.55;100.00
62510;BME280;48558;48.242;11.654;2023-05-16T01:40:39;95796.09;;;10.31;100.00
62510;BME280;48558;48.242;11.654;2023-05-16T01:45:16;95798.09;;;10.30;100.00
62510;BME280;48558;48.242;11.654;2023-05-16T01:49:35;95810.84;;;10.28;100.00
62510;BME280;48558;48.242;11.654;2023-05-16T01:53:57;95802.94;;;10.21;100.00
62510;BME280;48558;48.242;11.654;2023-05-16T01:58:14;95794.06;;;10.17;100.00
62510;BME280;48558;48.242;11.654;2023-05-16T02:02:31;95797.88;;;10.19;100.00
62510;BME280;48558;48.242;11.654;2023-05-16T02:06:44;95803.75;;;10.12;100.00
62510;BME280;48558;48.242;11.654;2023-05-16T02:10:57;95795.94;;;10.10;100.00
62510;BME280;48558;48.242;11.654;2023-05-16T02:15:12;95801.28;;;10.14;100.00
62510;BME280;48558;48.242;11.654;2023-05-16T02:19:29;95803.59;;;10.06;100.00
62510;BME280;48558;48.242;11.654;2023-05-16T02:23:42;95802.34;;;10.17;100.00
62510;BME280;48558;48.242;11.654;2023-05-16T02:27:55;95808.97;;;10.10;100.00
62510;BME280;48558;48.242;11.654;2023-05-16T02:32:08;95795.81;;;10.05;100.00
62510;BME280;48558;48.242;11.654;2023-05-16T02:36:20;95807.50;;;10.24;100.00
62510;BME280;48558;48.242;11.654;2023-05-16T02:40:32;95804.84;;;10.29;100.00
62510;BME280;48558;48.242;11.654;2023-05-16T02:44:45;95802.06;;;10.15;100.00
62510;BME280;48558;48.242;11.654;2023-05-16T02:48:58;95799.97;;;10.00;100.00
62510;BME280;48558;48.242;11.654;2023-05-16T02:53:10;95811.50;;;10.23;100.00
62510;BME280;48558;48.242;11.654;2023-05-16T02:57:23;95803.97;;;10.23;100.00
62510;BME280;48558;48.242;11.654;2023-05-16T03:01:35;95801.16;;;10.08;100.00
62510;BME280;48558;48.242;11.654;2023-05-16T03:05:48;95811.72;;;10.10;100.00
62510;BME280;48558;48.242;11.654;2023-05-16T03:10:03;95802.69;;;10.09;100.00
62510;BME280;48558;48.242;11.654;2023-05-16T03:14:26;95816.63;;;10.15;100.00
62510;BME280;48558;48.242;11.654;2023-05-16T03:18:38;95798.69;;;10.10;100.00
62510;BME280;48558;48.242;11.654;2023-05-16T03:22:51;95806.53;;;10.12;100.00
62510;BME280;48558;48.242;11.654;2023-05-16T03:27:03;95805.09;;;10.17;100.00
62510;BME280;48558;48.242;11.654;2023-05-16T03:31:16;95815.44;;;10.31;100.00
62510;BME280;48558;48.242;11.654;2023-05-16T03:35:33;95804.63;;;9.94;100.00
62510;BME280;48558;48.242;11.654;2023-05-16T03:39:46;95803.81;;;10.03;100.00
62510;BME280;48558;48.242;11.654;2023-05-16T03:43:58;95803.81;;;10.03;100.00
62510;BME280;48558;48.242;11.654;2023-05-16T03:48:11;95801.16;;;10.08;100.00
62510;BME280;48558;48.242;11.654;2023-05-16T03:52:24;95800.75;;;10.01;100.00
62510;BME280;48558;48.242;11.654;2023-05-16T03:56:46;95788.78;;;10.04;100.00
62510;BME280;48558;48.242;11.654;2023-05-16T04:01:09;95795.00;;;10.14;100.00
62510;BME280;48558;48.242;11.654;2023-05-16T04:05:21;95801.13;;;10.18;100.00
62510;BME280;48558;48.242;11.654;2023-05-16T04:09:44;95800.94;;;10.21;100.00
62510;BME280;48558;48.242;11.654;2023-05-16T04:13:56;95799.91;;;10.09;100.00
62510;BME280;48558;48.242;11.654;2023-05-16T04:18:10;95809.91;;;10.31;100.00
62510;BME280;48558;48.242;11.654;2023-05-16T04:22:22;95806.38;;;10.30;100.00
62510;BME280;48558;48.242;11.654;2023-05-16T04:26:35;95798.19;;;10.36;100.00
62510;BME280;48558;48.242;11.654;2023-05-16T04:30:51;95808.91;;;10.57;100.00
62510;BME280;48558;48.242;11.654;2023-05-16T04:35:05;95807.31;;;10.27;100.00
62510;BME280;48558;48.242;11.654;2023-05-16T04:39:20;95821.25;;;10.33;100.00
62510;BME280;48558;48.242;11.654;2023-05-16T04:43:43;95806.56;;;10.27;100.00
62510;BME280;48558;48.242;11.654;2023-05-16T04:47:55;95805.91;;;10.32;100.00
62510;BME280;48558;48.242;11.654;2023-05-16T04:52:18;95808.28;;;10.39;100.00
62510;BME280;48558;48.242;11.654;2023-05-16T04:56:30;95804.31;;;10.40;100.00
62510;BME280;48558;48.242;11.654;2023-05-16T05:00:43;95815.00;;;10.47;100.00
62510;BME280;48558;48.242;11.654;2023-05-16T05:04:55;95811.00;;;10.77;100.00
62510;BME280;48558;48.242;11.654;2023-05-16T05:09:08;95821.31;;;10.91;100.00
62510;BME280;48558;48.242;11.654;2023-05-16T05:13:21;95823.84;;;10.51;100.00
62510;BME280;48558;48.242;11.654;2023-05-16T05:17:39;95814.94;;;10.85;100.00
62510;BME280;48558;48.242;11.654;2023-05-16T05:21:51;95827.06;;;10.88;100.00
62510;BME280;48558;48.242;11.654;2023-05-16T05:26:04;95788.25;;;10.82;100.00
62510;BME280;48558;48.242;11.654;2023-05-16T05:30:27;95818.25;;;10.74;100.00
62510;BME280;48558;48.242;11.654;2023-05-16T05:34:39;95808.91;;;11.30;100.00
62510;BME280;48558;48.242;11.654;2023-05-16T05:39:02;95807.59;;;11.11;100.00
62510;BME280;48558;48.242;11.654;2023-05-16T05:43:24;95814.22;;;11.48;100.00
62510;BME280;48558;48.242;11.654;2023-05-16T05:47:45;95808.28;;;11.56;100.00
62510;BME280;48558;48.242;11.654;2023-05-16T05:51:58;95803.81;;;12.13;100.00
62510;BME280;48558;48.242;11.654;2023-05-16T05:56:11;95799.44;;;12.27;100.00
62510;BME280;48558;48.242;11.654;2023-05-16T06:00:24;95802.06;;;12.15;100.00
62510;BME280;48558;48.242;11.654;2023-05-16T06:04:37;95801.09;;;12.64;100.00
62510;BME280;48558;48.242;11.654;2023-05-16T06:08:49;95810.19;;;12.39;100.00
62510;BME280;48558;48.242;11.654;2023-05-16T06:13:02;95805.66;;;12.42;100.00
62510;BME280;48558;48.242;11.654;2023-05-16T06:17:15;95800.94;;;12.73;100.00
62510;BME280;48558;48.242;11.654;2023-05-16T06:21:28;95810.16;;;12.59;100.00
62510;BME280;48558;48.242;11.654;2023-05-16T06:25:41;95785.31;;;12.24;100.00
62510;BME280;48558;48.242;11.654;2023-05-16T06:29:53;95812.78;;;12.08;100.00
62510;BME280;48558;48.242;11.654;2023-05-16T06:34:06;95812.94;;;11.99;100.00
62510;BME280;48558;48.242;11.654;2023-05-16T06:38:28;95814.81;;;12.07;100.00
62510;BME280;48558;48.242;11.654;2023-05-16T06:42:41;95799.63;;;12.43;100.00
62510;BME280;48558;48.242;11.654;2023-05-16T06:46:53;95803.94;;;12.24;100.00
62510;BME280;48558;48.242;11.654;2023-05-16T06:51:06;95819.38;;;12.10;100.00
62510;BME280;48558;48.242;11.654;2023-05-16T06:55:28;95820.25;;;12.42;100.00
62510;BME280;48558;48.242;11.654;2023-05-16T06:59:41;95819.22;;;11.99;100.00
62510;BME280;48558;48.242;11.654;2023-05-16T07:03:54;95803.31;;;11.94;100.00
62510;BME280;48558;48.242;11.654;2023-05-16T07:08:10;95806.84;;;11.95;100.00
62510;BME280;48558;48.242;11.654;2023-05-16T07:12:23;95807.78;;;11.72;100.00
62510;BME280;48558;48.242;11.654;2023-05-16T07:16:46;95802.75;;;11.56;100.00
62510;BME280;48558;48.242;11.654;2023-05-16T07:20:59;95807.97;;;11.53;100.00
62510;BME280;48558;48.242;11.654;2023-05-16T07:25:11;95810.03;;;11.38;100.00
62510;BME280;48558;48.242;11.654;2023-05-16T07:29:25;95814.06;;;11.37;100.00
62510;BME280;48558;48.242;11.654;2023-05-16T07:33:38;95808.91;;;11.16;100.00
62510;BME280;48558;48.242;11.654;2023-05-16T07:37:51;95825.78;;;11.18;100.00
62510;BME280;48558;48.242;11.654;2023-05-16T07:42:06;95821.69;;;11.13;100.00
62510;BME280;48558;48.242;11.654;2023-05-16T07:46:19;95830.25;;;11.30;100.00
62510;BME280;48558;48.242;11.654;2023-05-16T07:50:32;95843.03;;;11.27;100.00
62510;BME280;48558;48.242;11.654;2023-05-16T07:54:45;95842.28;;;11.41;100.00
62510;BME280;48558;48.242;11.654;2023-05-16T07:58:58;95845.81;;;11.42;100.00
62510;BME280;48558;48.242;11.654;2023-05-16T08:03:12;95842.44;;;11.38;100.00
62510;BME280;48558;48.242;11.654;2023-05-16T08:07:25;95849.22;;;11.51;100.00
62510;BME280;48558;48.242;11.654;2023-05-16T08:11:41;95845.31;;;11.29;100.00
62510;BME280;48558;48.242;11.654;2023-05-16T08:15:58;95852.47;;;11.35;100.00
62510;BME280;48558;48.242;11.654;2023-05-16T08:20:17;95860.28;;;11.51;100.00
62510;BME280;48558;48.242;11.654;2023-05-16T08:24:30;95850.56;;;11.41;100.00
62510;BME280;48558;48.242;11.654;2023-05-16T08:28:42;95844.97;;;11.21;100.00
62510;BME280;48558;48.242;11.654;2023-05-16T08:32:55;95840.38;;;11.18;100.00
62510;BME280;48558;48.242;11.654;2023-05-16T08:37:07;95857.22;;;11.49;100.00
62510;BME280;48558;48.242;11.654;2023-05-16T08:41:20;95859.03;;;11.67;100.00
62510;BME280;48558;48.242;11.654;2023-05-16T08:45:33;95853.50;;;11.67;100.00
62510;BME280;48558;48.242;11.654;2023-05-16T08:49:47;95856.91;;;11.77;100.00
62510;BME280;48558;48.242;11.654;2023-05-16T08:54:05;95853.00;;;12.03;100.00
62510;BME280;48558;48.242;11.654;2023-05-16T08:58:33;95853.88;;;12.30;100.00
62510;BME280;48558;48.242;11.654;2023-05-16T09:02:46;95846.56;;;12.72;100.00
62510;BME280;48558;48.242;11.654;2023-05-16T09:07:09;95858.19;;;12.76;100.00
62510;BME280;48558;48.242;11.654;2023-05-16T09:11:22;95848.84;;;13.20;100.00
62510;BME280;48558;48.242;11.654;2023-05-16T09:15:35;95849.94;;;13.59;100.00
62510;BME280;48558;48.242;11.654;2023-05-16T09:19:47;95827.97;;;13.61;100.00
62510;BME280;48558;48.242;11.654;2023-05-16T09:24:07;95830.50;;;14.01;100.00
62510;BME280;48558;48.242;11.654;2023-05-16T09:28:20;95827.94;;;13.92;100.00
62510;BME280;48558;48.242;11.654;2023-05-16T09:32:33;95828.69;;;14.35;100.00
62510;BME280;48558;48.242;11.654;2023-05-16T09:36:46;95832.81;;;14.62;100.00
62510;BME280;48558;48.242;11.654;2023-05-16T09:41:08;95830.91;;;15.01;100.00
62510;BME280;48558;48.242;11.654;2023-05-16T09:45:21;95835.13;;;13.73;100.00
62510;BME280;48558;48.242;11.654;2023-05-16T09:49:36;95840.44;;;12.88;100.00
62510;BME280;48558;48.242;11.654;2023-05-16T09:53:49;95838.06;;;12.56;100.00
62510;BME280;48558;48.242;11.654;2023-05-16T09:58:01;95836.78;;;13.03;100.00
62510;BME280;48558;48.242;11.654;2023-05-16T10:02:14;95836.16;;;12.67;100.00
62510;BME280;48558;48.242;11.654;2023-05-16T10:06:37;95850.56;;;12.46;100.00
62510;BME280;48558;48.242;11.654;2023-05-16T10:10:54;95852.00;;;12.21;100.00
62510;BME280;48558;48.242;11.654;2023-05-16T10:15:07;95850.03;;;11.87;100.00
62510;BME280;48558;48.242;11.654;2023-05-16T10:19:31;95861.88;;;11.58;100.00
62510;BME280;48558;48.242;11.654;2023-05-16T10:23:49;95867.78;;;11.66;100.00
62510;BME280;48558;48.242;11.654;2023-05-16T10:28:03;95857.03;;;11.68;100.00
62510;BME280;48558;48.242;11.654;2023-05-16T10:32:17;95859.41;;;11.75;100.00
62510;BME280;48558;48.242;11.654;2023-05-16T10:36:32;95859.31;;;12.04;100.00
62510;BME280;48558;48.242;11.654;2023-05-16T10:40:46;95859.41;;;12.30;100.00
62510;BME280;48558;48.242;11.654;2023-05-16T10:45:18;95862.81;;;12.39;100.00
62510;BME280;48558;48.242;11.654;2023-05-16T10:49:31;95876.81;;;12.30;100.00
62510;BME280;48558;48.242;11.654;2023-05-16T10:53:44;95864.69;;;12.48;100.00
62510;BME280;48558;48.242;11.654;2023-05-16T10:57:56;95879.47;;;12.65;100.00
62510;BME280;48558;48.242;11.654;2023-05-16T11:16:26;95851.63;;;13.51;100.00
62510;BME280;48558;48.242;11.654;2023-05-16T11:20:40;95851.25;;;14.11;100.00
62510;BME280;48558;48.242;11.654;2023-05-16T11:25:03;95854.00;;;14.48;100.00
62510;BME280;48558;48.242;11.654;2023-05-16T11:29:35;95844.56;;;15.04;100.00
62510;BME280;48558;48.242;11.654;2023-05-16T11:33:55;95833.75;;;15.40;100.00
62510;BME280;48558;48.242;11.654;2023-05-16T11:38:14;95838.31;;;15.48;100.00
62510;BME280;48558;48.242;11.654;2023-05-16T11:42:33;95839.22;;;16.17;100.00
62510;BME280;48558;48.242;11.654;2023-05-16T11:46:47;95836.50;;;15.23;100.00
62510;BME280;48558;48.242;11.654;2023-05-16T11:50:59;95840.75;;;14.91;100.00
62510;BME280;48558;48.242;11.654;2023-05-16T11:55:12;95848.28;;;14.79;100.00
62510;BME280;48558;48.242;11.654;2023-05-16T11:59:38;95848.91;;;15.17;100.00
62510;BME280;48558;48.242;11.654;2023-05-16T12:03:56;95840.16;;;14.11;100.00
62510;BME280;48558;48.242;11.654;2023-05-16T12:08:09;95846.50;;;14.17;100.00
62510;BME280;48558;48.242;11.654;2023-05-16T12:12:22;95848.41;;;14.37;100.00
62510;BME280;48558;48.242;11.654;2023-05-16T12:16:35;95845.50;;;14.79;100.00
62510;BME280;48558;48.242;11.654;2023-05-16T12:20:49;95845.81;;;14.98;100.00
62510;BME280;48558;48.242;11.654;2023-05-16T12:25:20;95840.81;;;15.19;100.00
62510;BME280;48558;48.242;11.654;2023-05-16T12:29:33;95839.88;;;14.57;100.00
62510;BME280;48558;48.242;11.654;2023-05-16T12:33:47;95839.47;;;14.86;100.00
62510;BME280;48558;48.242;11.654;2023-05-16T12:38:03;95845.25;;;14.77;100.00
62510;BME280;48558;48.242;11.654;2023-05-16T12:42:18;95838.28;;;15.15;100.00
62510;BME280;48558;48.242;11.654;2023-05-16T12:46:30;95832.75;;;15.76;100.00
62510;BME280;48558;48.242;11.654;2023-05-16T12:50:43;95830.94;;;15.34;100.00
62510;BME280;48558;48.242;11.654;2023-05-16T12:54:59;95825.84;;;14.94;100.00
62510;BME280;48558;48.242;11.654;2023-05-16T12:59:12;95828.88;;;14.26;100.00
62510;BME280;48558;48.242;11.654;2023-05-16T13:03:25;95834.00;;;13.96;100.00
62510;BME280;48558;48.242;11.654;2023-05-16T13:07:39;95830.25;;;13.62;100.00
62510;BME280;48558;48.242;11.654;2023-05-16T13:11:51;95831.28;;;13.65;100.00
62510;BME280;48558;48.242;11.654;2023-05-16T13:16:05;95838.88;;;13.33;100.00
62510;BME280;48558;48.242;11.654;2023-05-16T13:20:17;95878.47;;;13.08;100.00
62510;BME280;48558;48.242;11.654;2023-05-16T13:24:41;95902.84;;;12.38;100.00
62510;BME280;48558;48.242;11.654;2023-05-16T13:29:02;95909.41;;;11.86;100.00
62510;BME280;48558;48.242;11.654;2023-05-16T13:33:15;95895.19;;;11.64;100.00
62510;BME280;48558;48.242;11.654;2023-05-16T13:37:27;95886.41;;;11.65;100.00
62510;BME280;48558;48.242;11.654;2023-05-16T13:41:50;95869.28;;;11.46;100.00
62510;BME280;48558;48.242;11.654;2023-05-16T13:46:03;95889.38;;;11.47;100.00
62510;BME280;48558;48.242;11.654;2023-05-16T13:50:16;95873.25;;;11.31;100.00
62510;BME280;48558;48.242;11.654;2023-05-16T13:54:29;95884.34;;;11.31;100.00
62510;BME280;48558;48.242;11.654;2023-05-16T13:58:43;95882.69;;;11.53;100.00
62510;BME280;48558;48.242;11.654;2023-05-16T14:03:12;95881.75;;;11.57;100.00
62510;BME280;48558;48.242;11.654;2023-05-16T14:07:35;95873.34;;;11.66;100.00
62510;BME280;48558;48.242;11.654;2023-05-16T14:11:47;95883.38;;;11.78;100.00
62510;BME280;48558;48.242;11.654;2023-05-16T14:16:00;95884.84;;;11.93;100.00
62510;BME280;48558;48.242;11.654;2023-05-16T14:20:13;95891.38;;;11.61;100.00
62510;BME280;48558;48.242;11.654;2023-05-16T14:24:26;95889.53;;;11.87;100.00
62510;BME280;48558;48.242;11.654;2023-05-16T14:28:39;95888.31;;;11.74;100.00
62510;BME280;48558;48.242;11.654;2023-05-16T14:32:51;95903.31;;;11.82;100.00
62510;BME280;48558;48.242;11.654;2023-05-16T14:37:04;95906.50;;;11.95;100.00
62510;BME280;48558;48.242;11.654;2023-05-16T14:41:16;95904.59;;;12.01;100.00
62510;BME280;48558;48.242;11.654;2023-05-16T14:45:29;95905.41;;;11.72;100.00
62510;BME280;48558;48.242;11.654;2023-05-16T14:49:41;95913.03;;;11.77;100.00
62510;BME280;48558;48.242;11.654;2023-05-16T14:53:54;95922.13;;;11.78;100.00
62510;BME280;48558;48.242;11.654;2023-05-16T14:58:17;95928.78;;;11.86;100.00
62510;BME280;48558;48.242;11.654;2023-05-16T15:02:29;95926.72;;;12.01;100.00
62510;BME280;48558;48.242;11.654;2023-05-16T15:06:42;95925.84;;;11.75;100.00
62510;BME280;48558;48.242;11.654;2023-05-16T15:10:55;95933.09;;;11.58;100.00
62510;BME280;48558;48.242;11.654;2023-05-16T15:15:08;95938.13;;;11.59;100.00
62510;BME280;48558;48.242;11.654;2023-05-16T15:19:27;95942.63;;;11.57;100.00
62510;BME280;48558;48.242;11.654;2023-05-16T15:23:39;95925.94;;;11.51;100.00
62510;BME280;48558;48.242;11.654;2023-05-16T15:27:54;95945.41;;;11.71;100.00
62510;BME280;48558;48.242;11.654;2023-05-16T15:32:16;95945.09;;;11.84;100.00
62510;BME280;48558;48.242;11.654;2023-05-16T15:36:39;95951.03;;;11.77;100.00
62510;BME280;48558;48.242;11.654;2023-05-16T15:40:52;95947.28;;;11.65;100.00
62510;BME280;48558;48.242;11.654;2023-05-16T15:45:34;95949.69;;;11.87;100.00
62510;BME280;48558;48.242;11.654;2023-05-16T15:49:50;95941.97;;;11.62;100.00
62510;BME280;48558;48.242;11.654;2023-05-16T15:54:03;95945.22;;;11.75;100.00
62510;BME280;48558;48.242;11.654;2023-05-16T15:58:16;95951.59;;;11.81;100.00
62510;BME280;48558;48.242;11.654;2023-05-16T16:02:37;95950.25;;;11.91;100.00
62510;BME280;48558;48.242;11.654;2023-05-16T16:06:51;95947.56;;;11.96;100.00
62510;BME280;48558;48.242;11.654;2023-05-16T16:11:04;95952.34;;;11.96;100.00
62510;BME280;48558;48.242;11.654;2023-05-16T16:15:16;95955.50;;;12.23;100.00
62510;BME280;48558;48.242;11.654;2023-05-16T16:19:40;95956.06;;;11.78;100.00
62510;BME280;48558;48.242;11.654;2023-05-16T16:23:53;95956.56;;;11.77;100.00
62510;BME280;48558;48.242;11.654;2023-05-16T16:28:15;95965.75;;;11.68;100.00
62510;BME280;48558;48.242;11.654;2023-05-16T16:32:30;95963.59;;;12.07;100.00
62510;BME280;48558;48.242;11.654;2023-05-16T16:36:42;95965.63;;;11.77;100.00
62510;BME280;48558;48.242;11.654;2023-05-16T16:40:55;95972.97;;;11.95;100.00
62510;BME280;48558;48.242;11.654;2023-05-16T16:45:08;95984.81;;;11.81;100.00
62510;BME280;48558;48.242;11.654;2023-05-16T16:49:21;95980.88;;;11.87;100.00
62510;BME280;48558;48.242;11.654;2023-05-16T16:53:33;95990.34;;;11.95;100.00
62510;BME280;48558;48.242;11.654;2023-05-16T16:57:48;95994.34;;;12.09;100.00
62510;BME280;48558;48.242;11.654;2023-05-16T17:02:02;95995.41;;;11.97;100.00
62510;BME280;48558;48.242;11.654;2023-05-16T17:06:24;96002.31;;;11.87;100.00
62510;BME280;48558;48.242;11.654;2023-05-16T17:10:37;96013.28;;;11.96;100.00
62510;BME280;48558;48.242;11.654;2023-05-16T17:14:50;96002.38;;;12.07;100.00
62510;BME280;48558;48.242;11.654;2023-05-16T17:19:13;96006.94;;;12.10;100.00
62510;BME280;48558;48.242;11.654;2023-05-16T17:23:25;96019.28;;;12.09;100.00
62510;BME280;48558;48.242;11.654;2023-05-16T17:27:38;96022.72;;;12.04;100.00
62510;BME280;48558;48.242;11.654;2023-05-16T17:31:52;96016.88;;;11.87;100.00
62510;BME280;48558;48.242;11.654;2023-05-16T17:36:05;96015.94;;;11.76;100.00
62510;BME280;48558;48.242;11.654;2023-05-16T17:40:23;96017.19;;;11.75;100.00
62510;BME280;48558;48.242;11.654;2023-05-16T17:44:45;96015.94;;;11.76;100.00
62510;BME280;48558;48.242;11.654;2023-05-16T17:48:58;96013.56;;;11.69;100.00
62510;BME280;48558;48.242;11.654;2023-05-16T17:53:11;96019.28;;;11.80;100.00
62510;BME280;48558;48.242;11.654;2023-05-16T17:57:23;96019.56;;;11.82;100.00
62510;BME280;48558;48.242;11.654;2023-05-16T18:01:46;96039.63;;;11.77;100.00
62510;BME280;48558;48.242;11.654;2023-05-16T18:05:59;96027.75;;;11.62;100.00
62510;BME280;48558;48.242;11.654;2023-05-16T18:10:22;96030.41;;;11.56;100.00
62510;BME280;48558;48.242;11.654;2023-05-16T18:14:39;96035.19;;;11.56;100.00
62510;BME280;48558;48.242;11.654;2023-05-16T18:18:56;96052.03;;;11.43;100.00
62510;BME280;48558;48.242;11.654;2023-05-16T18:23:14;96052.69;;;11.38;100.00
62510;BME280;48558;48.242;11.654;2023-05-16T18:27:27;96048.94;;;11.26;100.00
62510;BME280;48558;48.242;11.654;2023-05-16T18:31:39;96049.44;;;11.25;100.00
62510;BME280;48558;48.242;11.654;2023-05-16T18:35:53;96052.69;;;11.23;100.00
62510;BME280;48558;48.242;11.654;2023-05-16T18:40:06;96065.38;;;11.06;100.00
62510;BME280;48558;48.242;11.654;2023-05-16T18:44:27;96090.88;;;11.10;100.00
62510;BME280;48558;48.242;11.654;2023-05-16T18:48:41;96084.16;;;11.02;100.00
62510;BME280;48558;48.242;11.654;2023-05-16T18:53:03;96086.34;;;10.98;100.00
62510;BME280;48558;48.242;11.654;2023-05-16T18:57:16;96090.72;;;10.81;100.00
62510;BME280;48558;48.242;11.654;2023-05-16T19:01:29;96095.97;;;10.79;100.00
62510;BME280;48558;48.242;11.654;2023-05-16T19:05:41;96107.72;;;10.65;100.00
62510;BME280;48558;48.242;11.654;2023-05-16T19:09:55;96111.75;;;10.55;100.00
62510;BME280;48558;48.242;11.654;2023-05-16T19:14:07;96098.47;;;10.35;100.00
62510;BME280;48558;48.242;11.654;2023-05-16T19:18:21;96110.59;;;10.38;100.00
62510;BME280;48558;48.242;11.654;2023-05-16T19:22:34;96121.03;;;10.34;100.00
62510;BME280;48558;48.242;11.654;2023-05-16T19:26:47;96132.69;;;10.38;100.00
62510;BME280;48558;48.242;11.654;2023-05-16T19:31:02;96137.59;;;10.34;100.00
62510;BME280;48558;48.242;11.654;2023-05-16T19:35:15;96136.69;;;10.28;100.00
62510;BME280;48558;48.242;11.654;2023-05-16T19:39:30;96149.00;;;10.18;100.00
62510;BME280;48558;48.242;11.654;2023-05-16T19:43:52;96152.69;;;10.15;100.00
62510;BME280;48558;48.242;11.654;2023-05-16T19:48:05;96155.25;;;10.09;100.00
62510;BME280;48558;48.242;11.654;2023-05-16T19:52:18;96178.31;;;10.15;100.00
62510;BME280;48558;48.242;11.654;2023-05-16T19:56:31;96173.06;;;10.08;100.00
62510;BME280;48558;48.242;11.654;2023-05-16T20:00:44;96168.78;;;10.07;100.00
62510;BME280;48558;48.242;11.654;2023-05-16T20:04:58;96180.28;;;10.05;100.00
62510;BME280;48558;48.242;11.654;2023-05-16T20:09:10;96192.25;;;9.93;100.00
62510;BME280;48558;48.242;11.654;2023-05-16T20:13:23;96183.53;;;9.95;100.00
62510;BME280;48558;48.242;11.654;2023-05-16T20:17:37;96186.41;;;9.91;100.00
62510;BME280;48558;48.242;11.654;2023-05-16T20:21:50;96189.03;;;9.86;100.00
62510;BME280;48558;48.242;11.654;2023-05-16T20:26:03;96194.41;;;9.80;100.00
62510;BME280;48558;48.242;11.654;2023-05-16T20:30:16;96191.63;;;9.89;100.00
62510;BME280;48558;48.242;11.654;2023-05-16T20:34:28;96192.25;;;9.75;100.00
62510;BME280;48558;48.242;11.654;2023-05-16T20:38:42;96198.53;;;9.76;100.00
62510;BME280;48558;48.242;11.654;2023-05-16T20:42:55;96205.13;;;9.69;100.00
62510;BME280;48558;48.242;11.654;2023-05-16T20:47:07;96202.97;;;9.82;100.00
62510;BME280;48558;48.242;11.654;2023-05-16T20:51:26;96212.34;;;9.85;100.00
62510;BME280;48558;48.242;11.654;2023-05-16T20:55:38;96209.09;;;9.77;100.00
62510;BME280;48558;48.242;11.654;2023-05-16T20:59:51;96207.28;;;9.83;100.00
62510;BME280;48558;48.242;11.654;2023-05-16T21:04:04;96212.63;;;9.69;100.00
62510;BME280;48558;48.242;11.654;2023-05-16T21:08:17;96216.16;;;9.69;100.00
62510;BME280;48558;48.242;11.654;2023-05-16T21:12:29;96210.94;;;9.71;100.00
62510;BME280;48558;48.242;11.654;2023-05-16T21:16:43;96221.97;;;9.62;100.00
62510;BME280;48558;48.242;11.654;2023-05-16T21:21:05;96208.47;;;9.55;100.00
62510;BME280;48558;48.242;11.654;2023-05-16T21:25:18;96212.63;;;9.51;100.00
62510;BME280;48558;48.242;11.654;2023-05-16T21:29:30;96225.03;;;9.55;100.00
62510;BME280;48558;48.242;11.654;2023-05-16T21:33:53;96219.81;;;9.48;100.00
62510;BME280;48558;48.242;11.654;2023-05-16T21:38:06;96223.03;;;9.47;100.00
62510;BME280;48558;48.242;11.654;2023-05-16T21:42:28;96237.59;;;9.47;100.00
62510;BME280;48558;48.242;11.654;2023-05-16T21:46:41;96241.44;;;9.50;100.00
62510;BME280;48558;48.242;11.654;2023-05-16T21:50:54;96232.03;;;9.29;100.00
62510;BME280;48558;48.242;11.654;2023-05-16T21:55:07;96256.25;;;9.43;100.00
62510;BME280;48558;48.242;11.654;2023-05-16T21:59:30;96254.56;;;9.36;100.00
62510;BME280;48558;48.242;11.654;2023-05-16T22:03:43;96255.34;;;9.37;100.00
62510;BME280;48558;48.242;11.654;2023-05-16T22:07:56;96251.63;;;9.22;100.00
62510;BME280;48558;48.242;11.654;2023-05-16T22:12:08;96252.56;;;9.28;100.00
62510;BME280;48558;48.242;11.654;2023-05-16T22:16:21;96262.38;;;9.29;100.00
62510;BME280;48558;48.242;11.654;2023-05-16T22:20:33;96262.03;;;9.18;100.00